sensor_id;sensor_type;location;lat;lon;timestamp;temperature;humidity
52943;DHT22;38809;53.300;6.614;2022-10-31T00:01:13;13.20;99.90
52943;DHT22;38809;53.300;6.614;2022-10-31T00:03:40;13.20;99.90
52943;DHT22;38809;53.300;6.614;2022-10-31T00:06:06;13.10;99.90
52943;DHT22;38809;53.300;6.614;2022-10-31T00:08:31;13.10;99.90
52943;DHT22;38809;53.300;6.614;2022-10-31T00:10:57;13.00;99.90
52943;DHT22;38809;53.300;6.614;2022-10-31T00:13:23;13.10;99.90
52943;DHT22;38809;53.300;6.614;2022-10-31T00:15:48;13.10;99.90
52943;DHT22;38809;53.300;6.614;2022-10-31T00:18:14;13.20;99.90
52943;DHT22;38809;53.300;6.614;2022-10-31T00:20:40;13.10;99.90
52943;DHT22;38809;53.300;6.614;2022-10-31T00:23:06;13.10;99.90
52943;DHT22;38809;53.300;6.614;2022-10-31T00:25:33;13.10;99.90
52943;DHT22;38809;53.300;6.614;2022-10-31T00:27:59;13.20;99.90
52943;DHT22;38809;53.300;6.614;2022-10-31T00:30:25;13.10;99.90
52943;DHT22;38809;53.300;6.614;2022-10-31T00:32:50;13.00;99.90
52943;DHT22;38809;53.300;6.614;2022-10-31T00:35:16;13.00;99.90
52943;DHT22;38809;53.300;6.614;2022-10-31T00:37:41;13.00;99.90
52943;DHT22;38809;53.300;6.614;2022-10-31T00:40:08;13.10;99.90
52943;DHT22;38809;53.300;6.614;2022-10-31T00:42:33;12.90;99.90
52943;DHT22;38809;53.300;6.614;2022-10-31T00:44:59;12.90;99.90
52943;DHT22;38809;53.300;6.614;2022-10-31T00:47:25;12.90;99.90
52943;DHT22;38809;53.300;6.614;2022-10-31T00:49:50;12.90;99.90
52943;DHT22;38809;53.300;6.614;2022-10-31T00:52:16;12.90;99.90
52943;DHT22;38809;53.300;6.614;2022-10-31T00:54:42;12.90;99.90
52943;DHT22;38809;53.300;6.614;2022-10-31T00:57:07;12.90;99.90
52943;DHT22;38809;53.300;6.614;2022-10-31T00:59:33;12.90;99.90
52943;DHT22;38809;53.300;6.614;2022-10-31T01:01:59;12.90;99.90
52943;DHT22;38809;53.300;6.614;2022-10-31T01:04:24;12.90;99.90
52943;DHT22;38809;53.300;6.614;2022-10-31T01:06:50;12.90;99.90
52943;DHT22;38809;53.300;6.614;2022-10-31T01:09:16;12.90;99.90
52943;DHT22;38809;53.300;6.614;2022-10-31T01:11:41;12.90;99.90
52943;DHT22;38809;53.300;6.614;2022-10-31T01:14:08;12.80;99.90
52943;DHT22;38809;53.300;6.614;2022-10-31T01:16:34;12.80;99.90
52943;DHT22;38809;53.300;6.614;2022-10-31T01:19:00;13.00;99.90
52943;DHT22;38809;53.300;6.614;2022-10-31T01:21:27;12.80;99.90
52943;DHT22;38809;53.300;6.614;2022-10-31T01:23:54;12.80;99.90
52943;DHT22;38809;53.300;6.614;2022-10-31T01:26:22;12.80;99.90
52943;DHT22;38809;53.300;6.614;2022-10-31T01:28:51;12.70;99.90
52943;DHT22;38809;53.300;6.614;2022-10-31T01:31:19;12.70;99.90
52943;DHT22;38809;53.300;6.614;2022-10-31T01:33:45;12.70;99.90
52943;DHT22;38809;53.300;6.614;2022-10-31T01:36:17;12.80;99.90
52943;DHT22;38809;53.300;6.614;2022-10-31T01:38:45;12.80;99.90
52943;DHT22;38809;53.300;6.614;2022-10-31T01:41:12;12.80;99.90
52943;DHT22;38809;53.300;6.614;2022-10-31T01:43:58;12.70;99.90
52943;DHT22;38809;53.300;6.614;2022-10-31T01:46:24;12.70;99.90
52943;DHT22;38809;53.300;6.614;2022-10-31T01:48:52;12.70;99.90
52943;DHT22;38809;53.300;6.614;2022-10-31T01:51:20;12.70;99.90
52943;DHT22;38809;53.300;6.614;2022-10-31T01:53:49;12.70;99.90
52943;DHT22;38809;53.300;6.614;2022-10-31T01:56:17;12.60;99.90
52943;DHT22;38809;53.300;6.614;2022-10-31T01:58:44;12.60;99.90
52943;DHT22;38809;53.300;6.614;2022-10-31T02:01:11;12.60;99.90
52943;DHT22;38809;53.300;6.614;2022-10-31T02:03:38;12.60;99.90
52943;DHT22;38809;53.300;6.614;2022-10-31T02:06:07;12.50;99.90
52943;DHT22;38809;53.300;6.614;2022-10-31T02:08:37;12.50;99.90
52943;DHT22;38809;53.300;6.614;2022-10-31T02:11:05;12.50;99.90
52943;DHT22;38809;53.300;6.614;2022-10-31T02:13:33;12.40;99.90
52943;DHT22;38809;53.300;6.614;2022-10-31T02:15:59;12.40;99.90
52943;DHT22;38809;53.300;6.614;2022-10-31T02:18:28;12.40;99.90
52943;DHT22;38809;53.300;6.614;2022-10-31T02:34:28;12.50;99.90
52943;DHT22;38809;53.300;6.614;2022-10-31T02:37:12;12.50;99.90
52943;DHT22;38809;53.300;6.614;2022-10-31T02:44:50;12.40;99.90
52943;DHT22;38809;53.300;6.614;2022-10-31T02:47:22;12.40;99.90
52943;DHT22;38809;53.300;6.614;2022-10-31T02:49:56;12.40;99.90
52943;DHT22;38809;53.300;6.614;2022-10-31T02:52:28;12.40;99.90
52943;DHT22;38809;53.300;6.614;2022-10-31T02:54:54;12.30;99.90
52943;DHT22;38809;53.300;6.614;2022-10-31T02:57:26;12.40;99.90
52943;DHT22;38809;53.300;6.614;2022-10-31T02:59:59;12.30;99.90
52943;DHT22;38809;53.300;6.614;2022-10-31T03:08:23;12.30;99.90
52943;DHT22;38809;53.300;6.614;2022-10-31T03:13:46;12.30;99.90
52943;DHT22;38809;53.300;6.614;2022-10-31T03:16:24;12.20;99.90
52943;DHT22;38809;53.300;6.614;2022-10-31T03:19:00;12.20;99.90
52943;DHT22;38809;53.300;6.614;2022-10-31T03:21:33;12.20;99.90
52943;DHT22;38809;53.300;6.614;2022-10-31T03:24:02;12.20;99.90
52943;DHT22;38809;53.300;6.614;2022-10-31T03:26:30;12.20;99.90
52943;DHT22;38809;53.300;6.614;2022-10-31T03:29:03;12.20;99.90
52943;DHT22;38809;53.300;6.614;2022-10-31T03:31:33;12.20;99.90
52943;DHT22;38809;53.300;6.614;2022-10-31T03:34:01;12.10;99.90
52943;DHT22;38809;53.300;6.614;2022-10-31T03:36:30;12.10;99.90
52943;DHT22;38809;53.300;6.614;2022-10-31T03:39:01;12.20;99.90
52943;DHT22;38809;53.300;6.614;2022-10-31T03:41:29;12.20;99.90
52943;DHT22;38809;53.300;6.614;2022-10-31T03:44:01;12.10;99.90
52943;DHT22;38809;53.300;6.614;2022-10-31T03:46:28;11.90;99.90
52943;DHT22;38809;53.300;6.614;2022-10-31T03:48:55;11.70;99.90
52943;DHT22;38809;53.300;6.614;2022-10-31T03:51:44;11.60;99.90
52943;DHT22;38809;53.300;6.614;2022-10-31T03:56:48;11.70;99.90
52943;DHT22;38809;53.300;6.614;2022-10-31T03:59:37;11.70;99.90
52943;DHT22;38809;53.300;6.614;2022-10-31T04:02:13;11.80;99.90
52943;DHT22;38809;53.300;6.614;2022-10-31T04:04:40;11.80;99.90
52943;DHT22;38809;53.300;6.614;2022-10-31T04:07:07;11.80;99.90
52943;DHT22;38809;53.300;6.614;2022-10-31T04:09:36;11.50;99.90
52943;DHT22;38809;53.300;6.614;2022-10-31T04:12:05;11.70;99.90
52943;DHT22;38809;53.300;6.614;2022-10-31T04:14:36;11.80;99.90
52943;DHT22;38809;53.300;6.614;2022-10-31T04:17:05;11.80;99.90
52943;DHT22;38809;53.300;6.614;2022-10-31T04:19:33;11.80;99.90
52943;DHT22;38809;53.300;6.614;2022-10-31T04:21:59;11.80;99.90
52943;DHT22;38809;53.300;6.614;2022-10-31T04:24:25;11.80;99.90
52943;DHT22;38809;53.300;6.614;2022-10-31T04:26:50;11.80;99.90
52943;DHT22;38809;53.300;6.614;2022-10-31T04:29:16;11.80;99.90
52943;DHT22;38809;53.300;6.614;2022-10-31T04:31:42;11.90;99.90
52943;DHT22;38809;53.300;6.614;2022-10-31T04:34:08;11.80;99.90
52943;DHT22;38809;53.300;6.614;2022-10-31T04:36:33;11.80;99.90
52943;DHT22;38809;53.300;6.614;2022-10-31T04:38:59;11.80;99.90
52943;DHT22;38809;53.300;6.614;2022-10-31T04:41:25;11.70;99.90
52943;DHT22;38809;53.300;6.614;2022-10-31T04:43:50;11.70;99.90
52943;DHT22;38809;53.300;6.614;2022-10-31T04:46:16;11.70;99.90
52943;DHT22;38809;53.300;6.614;2022-10-31T04:48:42;11.60;99.90
52943;DHT22;38809;53.300;6.614;2022-10-31T04:51:07;11.60;99.90
52943;DHT22;38809;53.300;6.614;2022-10-31T04:53:33;11.50;99.90
52943;DHT22;38809;53.300;6.614;2022-10-31T04:55:59;11.50;99.90
52943;DHT22;38809;53.300;6.614;2022-10-31T04:58:28;11.40;99.90
52943;DHT22;38809;53.300;6.614;2022-10-31T05:00:55;11.40;99.90
52943;DHT22;38809;53.300;6.614;2022-10-31T05:03:20;11.40;99.90
52943;DHT22;38809;53.300;6.614;2022-10-31T05:05:46;11.40;99.90
52943;DHT22;38809;53.300;6.614;2022-10-31T05:08:13;11.40;99.90
52943;DHT22;38809;53.300;6.614;2022-10-31T05:10:38;11.40;99.90
52943;DHT22;38809;53.300;6.614;2022-10-31T05:13:05;11.40;99.90
52943;DHT22;38809;53.300;6.614;2022-10-31T05:15:31;11.30;99.90
52943;DHT22;38809;53.300;6.614;2022-10-31T05:17:57;11.40;99.90
52943;DHT22;38809;53.300;6.614;2022-10-31T05:20:25;11.30;99.90
52943;DHT22;38809;53.300;6.614;2022-10-31T05:22:55;11.30;99.90
52943;DHT22;38809;53.300;6.614;2022-10-31T05:25:22;11.30;99.90
52943;DHT22;38809;53.300;6.614;2022-10-31T05:27:50;11.30;99.90
52943;DHT22;38809;53.300;6.614;2022-10-31T05:30:19;11.20;99.90
52943;DHT22;38809;53.300;6.614;2022-10-31T05:32:47;11.40;99.90
52943;DHT22;38809;53.300;6.614;2022-10-31T05:35:16;11.20;99.90
52943;DHT22;38809;53.300;6.614;2022-10-31T05:37:42;11.20;99.90
52943;DHT22;38809;53.300;6.614;2022-10-31T05:40:10;11.20;99.90
52943;DHT22;38809;53.300;6.614;2022-10-31T05:42:39;11.10;99.90
52943;DHT22;38809;53.300;6.614;2022-10-31T05:45:06;11.10;99.90
52943;DHT22;38809;53.300;6.614;2022-10-31T05:47:32;11.20;99.90
52943;DHT22;38809;53.300;6.614;2022-10-31T05:49:58;11.20;99.90
52943;DHT22;38809;53.300;6.614;2022-10-31T05:52:23;11.20;99.90
52943;DHT22;38809;53.300;6.614;2022-10-31T05:54:49;11.20;99.90
52943;DHT22;38809;53.300;6.614;2022-10-31T05:57:15;11.10;99.90
52943;DHT22;38809;53.300;6.614;2022-10-31T05:59:40;11.10;99.90
52943;DHT22;38809;53.300;6.614;2022-10-31T06:02:06;11.10;99.90
52943;DHT22;38809;53.300;6.614;2022-10-31T06:04:31;11.10;99.90
52943;DHT22;38809;53.300;6.614;2022-10-31T06:06:57;11.00;99.90
52943;DHT22;38809;53.300;6.614;2022-10-31T06:09:23;11.00;99.90
52943;DHT22;38809;53.300;6.614;2022-10-31T06:11:49;11.00;99.90
52943;DHT22;38809;53.300;6.614;2022-10-31T06:14:14;10.90;99.90
52943;DHT22;38809;53.300;6.614;2022-10-31T06:16:40;10.90;99.90
52943;DHT22;38809;53.300;6.614;2022-10-31T06:19:06;10.90;99.90
52943;DHT22;38809;53.300;6.614;2022-10-31T06:21:31;10.90;99.90
52943;DHT22;38809;53.300;6.614;2022-10-31T06:23:57;10.80;99.90
52943;DHT22;38809;53.300;6.614;2022-10-31T06:26:23;10.80;99.90
52943;DHT22;38809;53.300;6.614;2022-10-31T06:28:48;11.60;99.90
52943;DHT22;38809;53.300;6.614;2022-10-31T06:31:14;10.70;99.90
52943;DHT22;38809;53.300;6.614;2022-10-31T06:33:43;10.80;99.90
52943;DHT22;38809;53.300;6.614;2022-10-31T06:36:09;10.80;99.90
52943;DHT22;38809;53.300;6.614;2022-10-31T06:38:35;10.70;99.90
52943;DHT22;38809;53.300;6.614;2022-10-31T06:41:07;10.70;99.90
52943;DHT22;38809;53.300;6.614;2022-10-31T06:43:32;10.70;99.90
52943;DHT22;38809;53.300;6.614;2022-10-31T06:46:02;10.70;99.90
52943;DHT22;38809;53.300;6.614;2022-10-31T06:48:28;10.80;99.90
52943;DHT22;38809;53.300;6.614;2022-10-31T06:51:00;10.70;99.90
52943;DHT22;38809;53.300;6.614;2022-10-31T06:53:27;10.80;99.90
52943;DHT22;38809;53.300;6.614;2022-10-31T06:55:55;10.80;99.90
52943;DHT22;38809;53.300;6.614;2022-10-31T06:58:21;10.70;99.90
52943;DHT22;38809;53.300;6.614;2022-10-31T07:00:47;10.10;99.90
52943;DHT22;38809;53.300;6.614;2022-10-31T07:03:14;10.00;99.90
52943;DHT22;38809;53.300;6.614;2022-10-31T07:05:42;10.20;99.90
52943;DHT22;38809;53.300;6.614;2022-10-31T07:08:11;10.10;99.90
52943;DHT22;38809;53.300;6.614;2022-10-31T07:10:38;10.30;99.90
52943;DHT22;38809;53.300;6.614;2022-10-31T07:13:06;9.60;99.90
52943;DHT22;38809;53.300;6.614;2022-10-31T07:15:36;9.30;99.90
52943;DHT22;38809;53.300;6.614;2022-10-31T07:18:07;9.10;99.90
52943;DHT22;38809;53.300;6.614;2022-10-31T07:20:33;9.30;99.90
52943;DHT22;38809;53.300;6.614;2022-10-31T07:22:59;9.50;99.90
52943;DHT22;38809;53.300;6.614;2022-10-31T07:25:26;9.70;99.90
52943;DHT22;38809;53.300;6.614;2022-10-31T07:27:52;9.80;99.90
52943;DHT22;38809;53.300;6.614;2022-10-31T07:30:18;9.90;99.90
52943;DHT22;38809;53.300;6.614;2022-10-31T07:32:50;10.00;99.90
52943;DHT22;38809;53.300;6.614;2022-10-31T07:35:22;10.20;99.90
52943;DHT22;38809;53.300;6.614;2022-10-31T07:37:49;10.30;99.90
52943;DHT22;38809;53.300;6.614;2022-10-31T07:40:15;10.70;99.90
52943;DHT22;38809;53.300;6.614;2022-10-31T07:42:46;10.50;99.90
52943;DHT22;38809;53.300;6.614;2022-10-31T07:45:16;10.60;99.90
52943;DHT22;38809;53.300;6.614;2022-10-31T07:47:44;10.60;99.90
52943;DHT22;38809;53.300;6.614;2022-10-31T07:50:15;10.70;99.90
52943;DHT22;38809;53.300;6.614;2022-10-31T07:52:41;10.80;99.90
52943;DHT22;38809;53.300;6.614;2022-10-31T07:55:07;10.90;99.90
52943;DHT22;38809;53.300;6.614;2022-10-31T07:57:33;11.00;99.90
52943;DHT22;38809;53.300;6.614;2022-10-31T07:59:59;11.00;99.90
52943;DHT22;38809;53.300;6.614;2022-10-31T08:02:25;11.10;99.90
52943;DHT22;38809;53.300;6.614;2022-10-31T08:04:51;11.10;99.90
52943;DHT22;38809;53.300;6.614;2022-10-31T08:07:17;11.20;99.90
52943;DHT22;38809;53.300;6.614;2022-10-31T08:09:43;11.30;99.90
52943;DHT22;38809;53.300;6.614;2022-10-31T08:12:09;11.40;99.90
52943;DHT22;38809;53.300;6.614;2022-10-31T08:14:34;11.50;99.90
52943;DHT22;38809;53.300;6.614;2022-10-31T08:17:00;11.50;99.90
52943;DHT22;38809;53.300;6.614;2022-10-31T08:19:26;11.60;99.90
52943;DHT22;38809;53.300;6.614;2022-10-31T08:21:52;11.60;99.90
52943;DHT22;38809;53.300;6.614;2022-10-31T08:24:20;11.70;99.90
52943;DHT22;38809;53.300;6.614;2022-10-31T08:26:46;11.60;99.90
52943;DHT22;38809;53.300;6.614;2022-10-31T08:29:12;11.70;99.90
52943;DHT22;38809;53.300;6.614;2022-10-31T08:31:38;11.70;99.90
52943;DHT22;38809;53.300;6.614;2022-10-31T08:34:04;11.80;99.90
52943;DHT22;38809;53.300;6.614;2022-10-31T08:36:29;11.80;99.90
52943;DHT22;38809;53.300;6.614;2022-10-31T08:38:55;11.80;99.90
52943;DHT22;38809;53.300;6.614;2022-10-31T08:41:21;11.80;99.90
52943;DHT22;38809;53.300;6.614;2022-10-31T08:43:47;11.80;99.90
52943;DHT22;38809;53.300;6.614;2022-10-31T08:46:13;11.90;99.90
52943;DHT22;38809;53.300;6.614;2022-10-31T08:48:39;11.90;99.90
52943;DHT22;38809;53.300;6.614;2022-10-31T08:51:05;12.00;99.90
52943;DHT22;38809;53.300;6.614;2022-10-31T08:53:31;12.00;99.90
52943;DHT22;38809;53.300;6.614;2022-10-31T08:55:57;12.20;99.90
52943;DHT22;38809;53.300;6.614;2022-10-31T08:58:23;12.10;99.90
52943;DHT22;38809;53.300;6.614;2022-10-31T09:00:52;12.10;99.90
52943;DHT22;38809;53.300;6.614;2022-10-31T09:03:22;12.20;99.90
52943;DHT22;38809;53.300;6.614;2022-10-31T09:05:48;12.20;99.90
52943;DHT22;38809;53.300;6.614;2022-10-31T09:08:15;12.30;99.90
52943;DHT22;38809;53.300;6.614;2022-10-31T09:10:41;12.40;99.90
52943;DHT22;38809;53.300;6.614;2022-10-31T09:13:16;12.50;99.90
52943;DHT22;38809;53.300;6.614;2022-10-31T09:15:44;12.60;99.90
52943;DHT22;38809;53.300;6.614;2022-10-31T09:18:11;12.80;99.90
52943;DHT22;38809;53.300;6.614;2022-10-31T09:20:39;13.00;99.90
52943;DHT22;38809;53.300;6.614;2022-10-31T09:23:07;13.10;99.90
52943;DHT22;38809;53.300;6.614;2022-10-31T09:25:34;13.20;99.90
52943;DHT22;38809;53.300;6.614;2022-10-31T09:28:02;13.30;99.90
52943;DHT22;38809;53.300;6.614;2022-10-31T09:30:30;13.40;99.90
52943;DHT22;38809;53.300;6.614;2022-10-31T09:32:56;13.60;99.90
52943;DHT22;38809;53.300;6.614;2022-10-31T09:35:23;13.60;99.90
52943;DHT22;38809;53.300;6.614;2022-10-31T09:37:58;14.00;99.90
52943;DHT22;38809;53.300;6.614;2022-10-31T09:40:32;13.80;99.90
52943;DHT22;38809;53.300;6.614;2022-10-31T09:48:32;14.10;99.90
52943;DHT22;38809;53.300;6.614;2022-10-31T09:56:18;14.10;99.90
52943;DHT22;38809;53.300;6.614;2022-10-31T09:58:47;14.30;99.90
52943;DHT22;38809;53.300;6.614;2022-10-31T10:01:31;14.30;99.90
52943;DHT22;38809;53.300;6.614;2022-10-31T10:04:09;14.40;99.90
52943;DHT22;38809;53.300;6.614;2022-10-31T10:06:44;14.50;99.90
52943;DHT22;38809;53.300;6.614;2022-10-31T10:09:10;14.60;99.90
52943;DHT22;38809;53.300;6.614;2022-10-31T10:14:29;14.90;99.90
52943;DHT22;38809;53.300;6.614;2022-10-31T10:17:05;14.80;99.90
52943;DHT22;38809;53.300;6.614;2022-10-31T10:30:21;15.10;99.90
52943;DHT22;38809;53.300;6.614;2022-10-31T10:35:34;15.40;99.90
52943;DHT22;38809;53.300;6.614;2022-10-31T10:38:24;15.50;99.90
52943;DHT22;38809;53.300;6.614;2022-10-31T10:40:53;15.50;99.90
52943;DHT22;38809;53.300;6.614;2022-10-31T10:43:35;15.60;99.90
52943;DHT22;38809;53.300;6.614;2022-10-31T10:51:59;15.40;99.90
52943;DHT22;38809;53.300;6.614;2022-10-31T10:59:28;15.30;99.90
52943;DHT22;38809;53.300;6.614;2022-10-31T11:01:56;15.20;99.90
52943;DHT22;38809;53.300;6.614;2022-10-31T11:04:35;15.20;99.90
52943;DHT22;38809;53.300;6.614;2022-10-31T11:09:28;15.20;99.90
52943;DHT22;38809;53.300;6.614;2022-10-31T11:11:55;15.20;99.90
52943;DHT22;38809;53.300;6.614;2022-10-31T11:14:21;15.20;99.90
52943;DHT22;38809;53.300;6.614;2022-10-31T11:16:55;15.40;99.90
52943;DHT22;38809;53.300;6.614;2022-10-31T11:19:31;15.40;99.90
52943;DHT22;38809;53.300;6.614;2022-10-31T11:22:14;15.30;99.90
52943;DHT22;38809;53.300;6.614;2022-10-31T11:24:41;15.40;99.90
52943;DHT22;38809;53.300;6.614;2022-10-31T11:27:19;15.50;99.90
52943;DHT22;38809;53.300;6.614;2022-10-31T11:29:45;15.50;99.90
52943;DHT22;38809;53.300;6.614;2022-10-31T11:32:22;15.50;99.90
52943;DHT22;38809;53.300;6.614;2022-10-31T11:34:58;15.60;99.90
52943;DHT22;38809;53.300;6.614;2022-10-31T11:37:27;15.60;99.90
52943;DHT22;38809;53.300;6.614;2022-10-31T11:39:59;15.50;99.90
52943;DHT22;38809;53.300;6.614;2022-10-31T11:42:28;15.40;99.90
52943;DHT22;38809;53.300;6.614;2022-10-31T11:44:56;15.50;99.90
52943;DHT22;38809;53.300;6.614;2022-10-31T11:47:25;15.20;99.90
52943;DHT22;38809;53.300;6.614;2022-10-31T11:49:51;15.10;99.90
52943;DHT22;38809;53.300;6.614;2022-10-31T11:52:24;15.00;99.90
52943;DHT22;38809;53.300;6.614;2022-10-31T11:55:33;15.00;99.90
52943;DHT22;38809;53.300;6.614;2022-10-31T11:57:47;15.00;99.90
52943;DHT22;38809;53.300;6.614;2022-10-31T12:00:23;15.00;99.90
52943;DHT22;38809;53.300;6.614;2022-10-31T12:02:49;15.00;99.90
52943;DHT22;38809;53.300;6.614;2022-10-31T12:05:23;15.10;99.90
52943;DHT22;38809;53.300;6.614;2022-10-31T12:07:52;15.30;99.90
52943;DHT22;38809;53.300;6.614;2022-10-31T12:10:21;15.40;99.90
52943;DHT22;38809;53.300;6.614;2022-10-31T12:15:33;15.30;99.90
52943;DHT22;38809;53.300;6.614;2022-10-31T12:29:52;15.30;99.90
52943;DHT22;38809;53.300;6.614;2022-10-31T12:35:23;15.40;99.90
52943;DHT22;38809;53.300;6.614;2022-10-31T12:38:19;15.40;99.90
52943;DHT22;38809;53.300;6.614;2022-10-31T12:46:02;15.50;99.90
52943;DHT22;38809;53.300;6.614;2022-10-31T12:51:36;15.40;99.90
52943;DHT22;38809;53.300;6.614;2022-10-31T12:59:37;15.30;99.90
52943;DHT22;38809;53.300;6.614;2022-10-31T13:02:18;15.20;99.90
52943;DHT22;38809;53.300;6.614;2022-10-31T13:07:28;15.10;99.90
52943;DHT22;38809;53.300;6.614;2022-10-31T13:10:08;15.20;99.90
52943;DHT22;38809;53.300;6.614;2022-10-31T13:12:39;15.10;99.90
52943;DHT22;38809;53.300;6.614;2022-10-31T13:15:16;15.20;99.90
52943;DHT22;38809;53.300;6.614;2022-10-31T13:17:51;15.20;99.90
52943;DHT22;38809;53.300;6.614;2022-10-31T13:20:43;15.10;99.90
52943;DHT22;38809;53.300;6.614;2022-10-31T13:25:52;15.00;99.90
52943;DHT22;38809;53.300;6.614;2022-10-31T13:30:48;14.80;99.90
52943;DHT22;38809;53.300;6.614;2022-10-31T13:33:34;14.80;99.90
52943;DHT22;38809;53.300;6.614;2022-10-31T13:41:48;14.80;99.90
52943;DHT22;38809;53.300;6.614;2022-10-31T13:44:20;14.70;99.90
52943;DHT22;38809;53.300;6.614;2022-10-31T13:46:47;14.80;99.90
52943;DHT22;38809;53.300;6.614;2022-10-31T13:49:39;14.80;99.90
52943;DHT22;38809;53.300;6.614;2022-10-31T13:54:45;14.90;99.90
52943;DHT22;38809;53.300;6.614;2022-10-31T13:59:58;14.90;99.90
52943;DHT22;38809;53.300;6.614;2022-10-31T14:02:33;15.00;99.90
52943;DHT22;38809;53.300;6.614;2022-10-31T14:05:18;15.00;99.90
52943;DHT22;38809;53.300;6.614;2022-10-31T14:07:47;14.80;99.90
52943;DHT22;38809;53.300;6.614;2022-10-31T14:10:36;15.10;99.90
52943;DHT22;38809;53.300;6.614;2022-10-31T14:13:31;15.10;99.90
52943;DHT22;38809;53.300;6.614;2022-10-31T14:16:04;15.00;99.90
52943;DHT22;38809;53.300;6.614;2022-10-31T14:18:33;15.10;99.90
52943;DHT22;38809;53.300;6.614;2022-10-31T14:21:00;15.10;99.90
52943;DHT22;38809;53.300;6.614;2022-10-31T14:23:37;15.00;99.90
52943;DHT22;38809;53.300;6.614;2022-10-31T14:28:53;14.90;99.90
52943;DHT22;38809;53.300;6.614;2022-10-31T14:31:44;14.80;99.90
52943;DHT22;38809;53.300;6.614;2022-10-31T14:45:33;14.80;99.90
52943;DHT22;38809;53.300;6.614;2022-10-31T14:50:51;14.70;99.90
52943;DHT22;38809;53.300;6.614;2022-10-31T14:53:43;14.70;99.90
52943;DHT22;38809;53.300;6.614;2022-10-31T14:56:11;14.70;99.90
52943;DHT22;38809;53.300;6.614;2022-10-31T14:58:41;14.60;99.90
52943;DHT22;38809;53.300;6.614;2022-10-31T15:01:27;14.70;99.90
52943;DHT22;38809;53.300;6.614;2022-10-31T15:03:57;14.70;99.90
52943;DHT22;38809;53.300;6.614;2022-10-31T15:06:24;14.60;99.90
52943;DHT22;38809;53.300;6.614;2022-10-31T15:08:52;14.60;99.90
52943;DHT22;38809;53.300;6.614;2022-10-31T15:11:24;14.60;99.90
52943;DHT22;38809;53.300;6.614;2022-10-31T15:13:57;14.50;99.90
52943;DHT22;38809;53.300;6.614;2022-10-31T15:16:43;14.50;99.90
52943;DHT22;38809;53.300;6.614;2022-10-31T15:19:16;14.50;99.90
52943;DHT22;38809;53.300;6.614;2022-10-31T15:21:45;14.40;99.90
52943;DHT22;38809;53.300;6.614;2022-10-31T15:24:13;14.20;99.90
52943;DHT22;38809;53.300;6.614;2022-10-31T15:26:46;14.10;99.90
52943;DHT22;38809;53.300;6.614;2022-10-31T15:29:14;13.90;99.90
52943;DHT22;38809;53.300;6.614;2022-10-31T15:31:58;13.90;99.90
52943;DHT22;38809;53.300;6.614;2022-10-31T15:34:40;13.70;99.90
52943;DHT22;38809;53.300;6.614;2022-10-31T15:37:14;13.70;99.90
52943;DHT22;38809;53.300;6.614;2022-10-31T15:39:40;13.60;99.90
52943;DHT22;38809;53.300;6.614;2022-10-31T15:42:19;13.60;99.90
52943;DHT22;38809;53.300;6.614;2022-10-31T15:44:49;13.60;99.90
52943;DHT22;38809;53.300;6.614;2022-10-31T15:47:21;13.60;99.90
52943;DHT22;38809;53.300;6.614;2022-10-31T15:49:59;13.60;99.90
52943;DHT22;38809;53.300;6.614;2022-10-31T15:52:50;13.50;99.90
52943;DHT22;38809;53.300;6.614;2022-10-31T15:55:19;13.50;99.90
52943;DHT22;38809;53.300;6.614;2022-10-31T15:57:48;13.50;99.90
52943;DHT22;38809;53.300;6.614;2022-10-31T16:02:47;13.60;99.90
52943;DHT22;38809;53.300;6.614;2022-10-31T16:05:19;13.50;99.90
52943;DHT22;38809;53.300;6.614;2022-10-31T16:07:49;13.50;99.90
52943;DHT22;38809;53.300;6.614;2022-10-31T16:10:24;13.50;99.90
52943;DHT22;38809;53.300;6.614;2022-10-31T16:12:51;13.60;99.90
52943;DHT22;38809;53.300;6.614;2022-10-31T16:15:19;13.60;99.90
52943;DHT22;38809;53.300;6.614;2022-10-31T16:17:49;13.50;99.90
52943;DHT22;38809;53.300;6.614;2022-10-31T16:20:24;13.50;99.90
52943;DHT22;38809;53.300;6.614;2022-10-31T16:22:52;13.50;99.90
52943;DHT22;38809;53.300;6.614;2022-10-31T16:25:29;13.50;99.90
52943;DHT22;38809;53.300;6.614;2022-10-31T16:28:02;13.60;99.90
52943;DHT22;38809;53.300;6.614;2022-10-31T16:30:45;13.60;99.90
52943;DHT22;38809;53.300;6.614;2022-10-31T16:33:30;13.50;99.90
52943;DHT22;38809;53.300;6.614;2022-10-31T16:35:59;13.60;99.90
52943;DHT22;38809;53.300;6.614;2022-10-31T16:38:25;13.50;99.90
52943;DHT22;38809;53.300;6.614;2022-10-31T16:40:51;13.60;99.90
52943;DHT22;38809;53.300;6.614;2022-10-31T16:43:17;13.60;99.90
52943;DHT22;38809;53.300;6.614;2022-10-31T16:45:46;13.50;99.90
52943;DHT22;38809;53.300;6.614;2022-10-31T16:48:14;13.50;99.90
52943;DHT22;38809;53.300;6.614;2022-10-31T16:50:41;13.50;99.90
52943;DHT22;38809;53.300;6.614;2022-10-31T16:53:08;13.50;99.90
52943;DHT22;38809;53.300;6.614;2022-10-31T16:55:34;13.50;99.90
52943;DHT22;38809;53.300;6.614;2022-10-31T16:58:12;13.50;99.90
52943;DHT22;38809;53.300;6.614;2022-10-31T17:00:39;13.50;99.90
52943;DHT22;38809;53.300;6.614;2022-10-31T17:03:05;13.50;99.90
52943;DHT22;38809;53.300;6.614;2022-10-31T17:05:30;13.50;99.90
52943;DHT22;38809;53.300;6.614;2022-10-31T17:07:57;13.50;99.90
52943;DHT22;38809;53.300;6.614;2022-10-31T17:10:23;13.50;99.90
52943;DHT22;38809;53.300;6.614;2022-10-31T17:12:50;13.60;99.90
52943;DHT22;38809;53.300;6.614;2022-10-31T17:15:25;13.60;99.90
52943;DHT22;38809;53.300;6.614;2022-10-31T17:17:51;13.60;99.90
52943;DHT22;38809;53.300;6.614;2022-10-31T17:20:26;13.60;99.90
52943;DHT22;38809;53.300;6.614;2022-10-31T17:22:53;13.60;99.90
52943;DHT22;38809;53.300;6.614;2022-10-31T17:25:22;13.60;99.90
52943;DHT22;38809;53.300;6.614;2022-10-31T17:27:48;13.60;99.90
52943;DHT22;38809;53.300;6.614;2022-10-31T17:30:21;13.60;99.90
52943;DHT22;38809;53.300;6.614;2022-10-31T17:32:47;13.60;99.90
52943;DHT22;38809;53.300;6.614;2022-10-31T17:35:14;13.60;99.90
52943;DHT22;38809;53.300;6.614;2022-10-31T17:37:41;13.60;99.90
52943;DHT22;38809;53.300;6.614;2022-10-31T17:40:08;13.50;99.90
52943;DHT22;38809;53.300;6.614;2022-10-31T17:42:34;13.60;99.90
52943;DHT22;38809;53.300;6.614;2022-10-31T17:45:00;13.60;99.90
52943;DHT22;38809;53.300;6.614;2022-10-31T17:47:26;13.60;99.90
52943;DHT22;38809;53.300;6.614;2022-10-31T17:49:52;13.60;99.90
52943;DHT22;38809;53.300;6.614;2022-10-31T17:52:18;13.60;99.90
52943;DHT22;38809;53.300;6.614;2022-10-31T17:54:44;13.60;99.90
52943;DHT22;38809;53.300;6.614;2022-10-31T17:57:10;13.60;99.90
52943;DHT22;38809;53.300;6.614;2022-10-31T17:59:36;13.50;99.90
52943;DHT22;38809;53.300;6.614;2022-10-31T18:02:02;13.60;99.90
52943;DHT22;38809;53.300;6.614;2022-10-31T18:04:36;13.50;99.90